createdAt,value
2023-04-02T00:01:55.085Z,1.30
2023-04-02T00:04:23.339Z,1.23
2023-04-02T00:06:55.110Z,1.27
2023-04-02T00:09:31.021Z,1.30
2023-04-02T00:12:00.388Z,1.03
2023-04-02T00:14:30.824Z,1.40
2023-04-02T00:17:01.501Z,1.27
2023-04-02T00:19:33.031Z,1.47
2023-04-02T00:22:01.578Z,1.30
2023-04-02T00:24:29.135Z,1.23
2023-04-02T00:26:56.889Z,1.10
2023-04-02T00:29:24.454Z,2.27
2023-04-02T00:31:54.657Z,1.10
2023-04-02T00:34:32.742Z,1.40
2023-04-02T00:37:00.631Z,1.53
2023-04-02T00:39:30.165Z,1.17
2023-04-02T00:42:05.088Z,1.50
2023-04-02T00:44:33.953Z,1.40
2023-04-02T00:47:04.770Z,1.23
2023-04-02T00:49:37.875Z,1.60
2023-04-02T00:52:08.070Z,1.37
2023-04-02T00:54:40.376Z,1.80
2023-04-02T00:57:14.572Z,1.70
2023-04-02T00:59:49.249Z,1.60
2023-04-02T01:02:26.432Z,1.60
2023-04-02T01:04:57.160Z,1.47
2023-04-02T01:07:35.540Z,1.57
2023-04-02T01:10:18.119Z,1.67
2023-04-02T01:12:56.861Z,1.50
2023-04-02T01:15:27.247Z,1.47
2023-04-02T01:18:09.600Z,1.60
2023-04-02T01:20:54.779Z,1.53
2023-04-02T01:23:26.731Z,1.83
2023-04-02T01:25:59.532Z,1.87
2023-04-02T01:28:29.641Z,1.50
2023-04-02T01:30:59.682Z,1.63
2023-04-02T01:33:30.651Z,1.57
2023-04-02T01:36:05.833Z,2.33
2023-04-02T01:38:37.016Z,1.43
2023-04-02T01:41:08.581Z,1.63
2023-04-02T01:43:41.463Z,1.53
2023-04-02T01:46:28.793Z,1.80
2023-04-02T01:48:56.800Z,1.90
2023-04-02T01:51:28.282Z,1.90
2023-04-02T01:53:56.553Z,2.33
2023-04-02T01:56:24.285Z,1.70
2023-04-02T01:58:52.154Z,1.90
2023-04-02T02:01:21.881Z,1.73
2023-04-02T02:03:51.289Z,2.30
2023-04-02T02:06:20.129Z,2.03
2023-04-02T02:08:50.346Z,1.60
2023-04-02T02:11:19.993Z,1.73
2023-04-02T02:13:49.339Z,1.80
2023-04-02T02:16:19.017Z,2.30
2023-04-02T02:18:50.994Z,2.13
2023-04-02T02:21:29.983Z,2.20
2023-04-02T02:23:58.090Z,1.97
2023-04-02T02:26:26.377Z,1.70
2023-04-02T02:28:56.705Z,2.83
2023-04-02T02:31:28.594Z,1.97
2023-04-02T02:33:59.925Z,1.90
2023-04-02T02:36:30.308Z,2.50
2023-04-02T02:38:59.523Z,1.90
2023-04-02T02:41:29.798Z,1.70
2023-04-02T02:44:01.853Z,1.73
2023-04-02T02:46:30.858Z,1.80
2023-04-02T02:49:01.184Z,2.00
2023-04-02T02:51:32.125Z,2.20
2023-04-02T02:54:03.563Z,1.80
2023-04-02T02:56:32.025Z,1.90
2023-04-02T02:59:00.310Z,1.80
2023-04-02T03:01:29.379Z,1.63
2023-04-02T03:03:57.301Z,2.00
2023-04-02T03:06:26.372Z,2.10
2023-04-02T03:08:59.106Z,1.93
2023-04-02T03:11:30.692Z,1.80
2023-04-02T03:14:03.837Z,1.80
2023-04-02T03:16:35.603Z,1.87
2023-04-02T03:19:06.819Z,1.90
2023-04-02T03:21:39.044Z,1.80
2023-04-02T03:24:12.044Z,2.00
2023-04-02T03:26:42.095Z,1.70
2023-04-02T03:29:16.393Z,1.90
2023-04-02T03:31:47.438Z,1.77
2023-04-02T03:34:18.572Z,1.70
2023-04-02T03:36:53.329Z,1.87
2023-04-02T03:39:24.292Z,2.00
2023-04-02T03:41:54.207Z,1.73
2023-04-02T03:44:25.171Z,2.10
2023-04-02T03:46:57.372Z,1.40
2023-04-02T03:49:30.315Z,2.30
2023-04-02T03:52:02.935Z,2.03
2023-04-02T03:54:31.708Z,1.87
2023-04-02T03:56:59.690Z,2.00
2023-04-02T03:59:35.049Z,2.00
2023-04-02T04:02:11.804Z,2.13
2023-04-02T04:04:41.762Z,1.87
2023-04-02T04:07:16.870Z,2.10
2023-04-02T04:09:47.159Z,1.80
2023-04-02T04:12:23.227Z,2.20
2023-04-02T04:14:54.644Z,2.00
2023-04-02T04:17:30.151Z,1.90
2023-04-02T04:20:02.870Z,2.13
2023-04-02T04:22:32.653Z,2.10
2023-04-02T04:25:01.023Z,1.73
2023-04-02T04:27:34.571Z,2.07
2023-04-02T04:30:05.877Z,2.50
2023-04-02T04:32:36.318Z,2.00
2023-04-02T04:35:08.145Z,2.30
2023-04-02T04:37:43.157Z,1.90
2023-04-02T04:40:17.383Z,2.33
2023-04-02T04:42:46.900Z,2.17
2023-04-02T04:45:40.877Z,2.00
2023-04-02T04:48:11.712Z,2.23
2023-04-02T04:50:42.450Z,2.13
2023-04-02T04:53:17.241Z,2.17
2023-04-02T04:55:45.696Z,2.50
2023-04-02T04:58:20.034Z,2.20
2023-04-02T05:00:55.648Z,2.30
2023-04-02T05:03:30.283Z,2.07
2023-04-02T05:06:04.356Z,2.20
2023-04-02T05:08:37.323Z,2.30
2023-04-02T05:11:07.521Z,3.00
2023-04-02T05:13:40.245Z,2.83
2023-04-02T05:16:14.817Z,2.80
2023-04-02T05:18:44.874Z,2.90
2023-04-02T05:21:17.462Z,3.07
2023-04-02T05:23:49.971Z,3.00
2023-04-02T05:26:20.485Z,3.00
2023-04-02T05:28:54.209Z,3.80
2023-04-02T05:31:26.219Z,2.90
2023-04-02T05:33:54.786Z,3.00
2023-04-02T05:36:24.536Z,3.30
2023-04-02T05:38:54.573Z,3.30
2023-04-02T05:41:26.890Z,3.60
2023-04-02T05:44:00.837Z,3.43
2023-04-02T05:46:32.738Z,3.30
2023-04-02T05:49:00.978Z,3.50
2023-04-02T05:51:32.714Z,2.90
2023-04-02T05:54:05.019Z,3.37
2023-04-02T05:56:36.757Z,3.50
2023-04-02T05:59:08.509Z,3.83
2023-04-02T06:01:43.164Z,3.43
2023-04-02T06:04:18.939Z,3.50
2023-04-02T06:06:50.039Z,3.07
2023-04-02T06:09:23.447Z,3.53
2023-04-02T06:11:55.635Z,3.57
2023-04-02T06:14:23.267Z,3.13
2023-04-02T06:16:51.560Z,3.77
2023-04-02T06:19:23.198Z,3.40
2023-04-02T06:21:52.324Z,3.50
2023-04-02T06:24:24.265Z,3.37
2023-04-02T06:26:56.253Z,3.20
2023-04-02T06:29:29.880Z,3.20
2023-04-02T06:31:58.681Z,3.20
2023-04-02T06:34:28.070Z,3.20
2023-04-02T06:36:57.766Z,4.10
2023-04-02T06:39:28.040Z,3.27
2023-04-02T06:41:59.228Z,3.30
2023-04-02T06:44:28.753Z,3.30
2023-04-02T06:46:59.677Z,3.30
2023-04-02T06:49:33.219Z,3.50
2023-04-02T06:52:03.234Z,3.50
2023-04-02T06:54:32.206Z,3.47
2023-04-02T06:57:03.961Z,3.90
2023-04-02T06:59:31.532Z,3.73
2023-04-02T07:02:03.524Z,4.20
2023-04-02T07:04:31.480Z,4.13
2023-04-02T07:06:59.375Z,3.80
2023-04-02T07:09:26.933Z,3.60
2023-04-02T07:11:55.870Z,3.73
2023-04-02T07:14:23.733Z,3.83
2023-04-02T07:16:52.258Z,3.43
2023-04-02T07:19:21.946Z,3.27
2023-04-02T07:21:49.590Z,3.90
2023-04-02T07:24:17.492Z,3.70
2023-04-02T07:26:47.588Z,3.73
2023-04-02T07:29:17.355Z,3.53
2023-04-02T07:31:45.363Z,3.80
2023-04-02T07:34:12.944Z,3.67
2023-04-02T07:36:40.662Z,3.87
2023-04-02T07:39:08.194Z,4.17
2023-04-02T07:41:51.780Z,4.20
2023-04-02T07:44:20.694Z,3.77
2023-04-02T07:46:48.310Z,3.50
2023-04-02T07:49:15.926Z,3.93
2023-04-02T07:51:43.500Z,3.90
2023-04-02T07:54:11.201Z,3.97
2023-04-02T07:56:38.795Z,3.93
2023-04-02T07:59:06.822Z,3.50
2023-04-02T08:01:36.575Z,3.80
2023-04-02T08:04:05.239Z,3.90
2023-04-02T08:06:32.853Z,4.27
2023-04-02T08:09:00.377Z,3.83
2023-04-02T08:11:29.718Z,4.13
2023-04-02T08:13:59.674Z,4.03
2023-04-02T08:16:27.850Z,3.50
2023-04-02T08:18:56.855Z,4.30
2023-04-02T08:21:25.345Z,4.03
2023-04-02T08:23:52.913Z,3.20
2023-04-02T08:26:20.448Z,3.30
2023-04-02T08:28:47.992Z,4.30
2023-04-02T08:31:15.615Z,4.27
2023-04-02T08:33:43.197Z,4.27
2023-04-02T08:36:16.631Z,3.20
2023-04-02T08:38:44.231Z,3.27
2023-04-02T08:41:21.527Z,10.80
2023-04-02T08:44:00.984Z,4.10
2023-04-02T08:46:32.054Z,3.03
2023-04-02T08:49:02.563Z,2.90
2023-04-02T08:51:35.617Z,3.47
2023-04-02T08:54:17.410Z,2.90
2023-04-02T08:56:48.712Z,2.53
2023-04-02T08:59:22.972Z,3.17
2023-04-02T09:01:58.658Z,2.80
2023-04-02T09:04:27.063Z,2.90
2023-04-02T09:06:57.780Z,2.70
2023-04-02T09:09:26.168Z,1.87
2023-04-02T09:11:56.271Z,1.27
2023-04-02T09:14:30.621Z,1.97
2023-04-02T09:17:02.783Z,2.87
2023-04-02T09:19:35.808Z,2.53
2023-04-02T09:22:10.392Z,2.30
2023-04-02T09:24:38.988Z,3.40
2023-04-02T09:27:18.376Z,2.03
2023-04-02T09:29:47.048Z,2.90
2023-04-02T09:32:24.573Z,2.33
2023-04-02T09:35:15.090Z,2.20
2023-04-02T09:38:12.597Z,2.20
2023-04-02T09:40:44.967Z,1.70
2023-04-02T09:43:14.097Z,2.00
2023-04-02T09:45:42.795Z,2.20
2023-04-02T09:48:22.921Z,2.20
2023-04-02T09:50:50.496Z,1.90
2023-04-02T09:53:29.858Z,1.80
2023-04-02T09:56:12.116Z,1.83
2023-04-02T09:58:42.283Z,2.20
2023-04-02T10:01:25.251Z,1.80
2023-04-02T10:03:52.826Z,2.00
2023-04-02T10:06:20.522Z,1.70
2023-04-02T10:08:49.452Z,2.53
2023-04-02T10:11:21.375Z,2.53
2023-04-02T10:13:53.826Z,2.50
2023-04-02T10:16:27.462Z,1.80
2023-04-02T10:18:58.547Z,1.73
2023-04-02T10:21:28.252Z,1.53
2023-04-02T10:23:59.246Z,2.30
2023-04-02T10:26:47.470Z,2.40
2023-04-02T10:29:38.194Z,2.20
2023-04-02T10:32:09.748Z,2.10
2023-04-02T10:34:44.796Z,2.23
2023-04-02T10:37:28.632Z,2.50
2023-04-02T10:39:59.438Z,2.00
2023-04-02T10:42:31.518Z,2.57
2023-04-02T10:45:01.759Z,1.97
2023-04-02T10:47:37.981Z,2.63
2023-04-02T10:50:25.249Z,2.60
2023-04-02T10:52:58.011Z,2.50
2023-04-02T10:55:31.813Z,2.60
2023-04-02T10:58:01.669Z,2.73
2023-04-02T11:00:30.053Z,2.07
2023-04-02T11:03:00.192Z,2.77
2023-04-02T11:05:32.161Z,1.80
2023-04-02T11:08:04.059Z,2.47
2023-04-02T11:10:35.339Z,1.60
2023-04-02T11:13:08.701Z,2.03
2023-04-02T11:15:37.307Z,2.17
2023-04-02T11:18:05.435Z,1.90
2023-04-02T11:21:06.991Z,2.27
2023-04-02T11:23:37.160Z,1.97
2023-04-02T11:26:35.247Z,2.10
2023-04-02T11:29:07.549Z,2.63
2023-04-02T11:31:35.573Z,2.53
2023-04-02T11:34:03.284Z,2.40
2023-04-02T11:37:00.298Z,2.90
2023-04-02T11:39:53.360Z,2.70
2023-04-02T11:42:30.472Z,2.23
2023-04-02T11:45:01.043Z,2.70
2023-04-02T11:47:29.868Z,2.70
2023-04-02T11:50:01.472Z,6.90
2023-04-02T11:52:32.581Z,2.67
2023-04-02T11:55:07.257Z,2.60
2023-04-02T11:57:47.276Z,2.57
2023-04-02T12:00:23.097Z,2.63
2023-04-02T12:03:03.456Z,2.60
2023-04-02T12:05:37.587Z,2.97
2023-04-02T12:08:13.423Z,2.73
2023-04-02T12:10:54.642Z,2.40
2023-04-02T12:13:58.487Z,9.43
2023-04-02T12:16:31.266Z,2.43
2023-04-02T12:18:59.255Z,2.93
2023-04-02T12:21:28.712Z,2.90
2023-04-02T12:23:58.950Z,2.77
2023-04-02T12:26:37.548Z,3.10
2023-04-02T12:29:24.701Z,2.60
2023-04-02T12:31:53.037Z,3.20
2023-04-02T12:34:22.756Z,3.47
2023-04-02T12:36:59.497Z,3.87
2023-04-02T12:39:28.579Z,3.43
2023-04-02T12:41:56.855Z,3.50
2023-04-02T12:44:27.626Z,3.70
2023-04-02T12:46:55.452Z,3.30
2023-04-02T12:49:29.095Z,2.87
2023-04-02T12:51:57.520Z,3.00
2023-04-02T12:54:25.037Z,2.93
2023-04-02T12:56:57.851Z,3.50
2023-04-02T12:59:31.282Z,4.07
2023-04-02T13:02:00.806Z,3.70
2023-04-02T13:04:28.540Z,2.87
2023-04-02T13:06:56.551Z,3.50
2023-04-02T13:09:30.799Z,3.33
2023-04-02T13:12:00.898Z,3.87
2023-04-02T13:14:31.176Z,3.27
2023-04-02T13:16:58.835Z,3.70
2023-04-02T13:19:29.766Z,3.80
2023-04-02T13:21:58.686Z,3.30
2023-04-02T13:24:27.825Z,3.93
2023-04-02T13:26:58.018Z,3.70
2023-04-02T13:29:28.311Z,4.50
2023-04-02T13:31:59.244Z,4.03
2023-04-02T13:34:27.003Z,4.03
2023-04-02T13:36:54.849Z,4.77
2023-04-02T13:39:22.481Z,3.70
2023-04-02T13:41:54.037Z,4.20
2023-04-02T13:44:23.716Z,5.07
2023-04-02T13:46:51.822Z,4.57
2023-04-02T13:49:20.883Z,4.50
2023-04-02T13:51:50.586Z,4.53
2023-04-02T13:54:24.485Z,4.73
2023-04-02T13:56:52.601Z,5.47
2023-04-02T13:59:21.049Z,4.30
2023-04-02T14:01:50.759Z,5.10
2023-04-02T14:04:23.339Z,4.80
2023-04-02T14:07:16.994Z,4.97
2023-04-02T14:09:54.985Z,3.77
2023-04-02T14:12:30.084Z,4.07
2023-04-02T14:15:20.584Z,4.37
2023-04-02T14:17:59.215Z,3.77
2023-04-02T14:20:36.276Z,5.77
2023-04-02T14:23:18.069Z,4.20
2023-04-02T14:25:50.442Z,4.30
2023-04-02T14:28:23.648Z,3.97
2023-04-02T14:30:57.891Z,4.60
2023-04-02T14:33:32.124Z,4.20
2023-04-02T14:36:10.011Z,5.57
2023-04-02T14:38:42.047Z,3.87
2023-04-02T14:41:15.241Z,3.97
2023-04-02T14:43:46.848Z,4.03
2023-04-02T14:46:15.296Z,3.73
2023-04-02T14:48:48.856Z,3.67
2023-04-02T14:51:24.248Z,3.87
2023-04-02T14:53:58.142Z,4.30
2023-04-02T14:56:26.695Z,3.97
2023-04-02T14:59:06.993Z,4.17
2023-04-02T15:01:37.923Z,3.57
2023-04-02T15:04:09.167Z,3.90
2023-04-02T15:06:41.925Z,4.70
2023-04-02T15:09:15.428Z,2.90
2023-04-02T15:11:47.171Z,3.00
2023-04-02T15:14:18.336Z,4.20
2023-04-02T15:16:46.000Z,4.00
2023-04-02T15:19:15.650Z,3.63
2023-04-02T15:21:57.755Z,3.43
2023-04-02T15:24:33.093Z,3.57
2023-04-02T15:27:14.783Z,3.97
2023-04-02T15:29:53.675Z,3.17
2023-04-02T15:32:28.276Z,3.70
2023-04-02T15:35:00.657Z,3.20
2023-04-02T15:37:34.614Z,3.43
2023-04-02T15:40:19.410Z,2.60
2023-04-02T15:42:50.743Z,3.17
2023-04-02T15:45:31.169Z,2.90
2023-04-02T15:48:08.585Z,3.30
2023-04-02T15:50:53.112Z,3.37
2023-04-02T15:53:35.712Z,4.40
2023-04-02T15:56:10.421Z,4.30
2023-04-02T15:58:50.105Z,3.47
2023-04-02T16:01:23.634Z,3.50
2023-04-02T16:04:16.906Z,2.80
2023-04-02T16:07:02.117Z,3.13
2023-04-02T16:09:38.900Z,3.17
2023-04-02T16:12:13.599Z,3.03
2023-04-02T16:14:42.430Z,4.00
2023-04-02T16:17:24.294Z,3.13
2023-04-02T16:19:55.763Z,3.50
2023-04-02T16:22:25.926Z,3.70
2023-04-02T16:25:01.912Z,5.00
2023-04-02T16:27:33.074Z,7.37
2023-04-02T16:30:28.021Z,4.43
2023-04-02T16:33:08.483Z,4.40
2023-04-02T16:35:43.561Z,4.20
2023-04-02T16:38:19.485Z,3.40
2023-04-02T16:41:06.932Z,3.63
2023-04-02T16:43:42.273Z,4.00
2023-04-02T16:46:13.242Z,3.30
2023-04-02T16:48:46.763Z,3.90
2023-04-02T16:51:19.722Z,3.93
2023-04-02T16:54:01.401Z,4.27
2023-04-02T16:56:44.651Z,3.83
2023-04-02T16:59:18.535Z,4.83
2023-04-02T17:01:52.209Z,4.33
2023-04-02T17:04:46.636Z,4.70
2023-04-02T17:07:24.055Z,3.90
2023-04-02T17:09:53.165Z,4.27
2023-04-02T17:12:23.586Z,4.07
2023-04-02T17:14:54.605Z,4.53
2023-04-02T17:17:23.887Z,4.77
2023-04-02T17:19:53.120Z,4.47
2023-04-02T17:22:22.775Z,4.67
2023-04-02T17:24:53.789Z,4.50
2023-04-02T17:27:26.560Z,5.00
2023-04-02T17:29:58.086Z,7.40
2023-04-02T17:32:29.750Z,4.90
2023-04-02T17:34:57.739Z,4.40
2023-04-02T17:37:31.205Z,4.30
2023-04-02T17:40:09.078Z,5.23
2023-04-02T17:42:49.026Z,4.30
2023-04-02T17:45:20.668Z,4.80
2023-04-02T17:47:56.837Z,4.27
2023-04-02T17:50:47.742Z,4.87
2023-04-02T17:53:22.659Z,4.13
2023-04-02T17:55:57.276Z,4.80
2023-04-02T17:58:43.789Z,4.07
2023-04-02T18:01:13.632Z,5.23
2023-04-02T18:03:51.579Z,4.83
2023-04-02T18:06:21.976Z,4.73
2023-04-02T18:08:58.899Z,4.90
2023-04-02T18:11:31.716Z,4.80
2023-04-02T18:14:03.203Z,4.83
2023-04-02T18:16:42.627Z,4.67
2023-04-02T18:19:16.359Z,4.37
2023-04-02T18:21:50.174Z,4.73
2023-04-02T18:24:32.475Z,4.90
2023-04-02T18:27:18.402Z,5.23
2023-04-02T18:29:54.368Z,5.20
2023-04-02T18:32:39.842Z,4.73
2023-04-02T18:35:15.253Z,4.23
2023-04-02T18:37:51.466Z,5.33
2023-04-02T18:40:27.560Z,5.20
2023-04-02T18:43:01.578Z,4.80
2023-04-02T18:45:38.869Z,4.37
2023-04-02T18:48:14.915Z,5.10
2023-04-02T18:50:46.778Z,5.33
2023-04-02T18:53:15.940Z,4.93
2023-04-02T18:55:47.630Z,4.83
2023-04-02T18:58:17.306Z,4.50
2023-04-02T19:00:46.500Z,4.93
2023-04-02T19:03:20.805Z,4.80
2023-04-02T19:05:52.290Z,4.60
2023-04-02T19:08:23.077Z,4.90
2023-04-02T19:10:54.447Z,5.43
2023-04-02T19:13:22.461Z,4.83
2023-04-02T19:16:09.998Z,5.00
2023-04-02T19:18:45.468Z,5.20
2023-04-02T19:21:19.142Z,4.97
2023-04-02T19:24:00.795Z,5.03
2023-04-02T19:26:32.655Z,4.77
2023-04-02T19:29:06.173Z,5.03
2023-04-02T19:31:42.372Z,4.50
2023-04-02T19:34:20.012Z,4.60
2023-04-02T19:36:50.717Z,4.60
2023-04-02T19:39:40.094Z,8.13
2023-04-02T19:42:15.567Z,5.60
2023-04-02T19:44:47.164Z,4.53
2023-04-02T19:47:17.597Z,4.73
2023-04-02T19:49:45.626Z,4.20
2023-04-02T19:52:13.675Z,5.03
2023-04-02T19:54:41.224Z,5.17
2023-04-02T19:57:16.093Z,4.60
2023-04-02T19:59:43.779Z,4.60
2023-04-02T20:02:11.901Z,4.57
2023-04-02T20:04:40.909Z,4.10
2023-04-02T20:07:08.469Z,4.50
2023-04-02T20:09:36.070Z,5.20
2023-04-02T20:12:03.628Z,4.70
2023-04-02T20:14:31.224Z,5.17
2023-04-02T20:16:59.027Z,25.70
2023-04-02T20:19:26.634Z,19.77
2023-04-02T20:21:56.270Z,35.03
2023-04-02T20:24:23.819Z,11.33
2023-04-02T20:26:51.353Z,4.23
2023-04-02T20:29:18.926Z,5.53
2023-04-02T20:31:46.486Z,4.70
2023-04-02T20:34:14.202Z,5.20
2023-04-02T20:36:41.966Z,4.53
2023-04-02T20:39:11.969Z,4.23
2023-04-02T20:41:39.579Z,4.70
2023-04-02T20:44:07.798Z,4.17
2023-04-02T20:46:35.565Z,4.37
2023-04-02T20:49:03.429Z,4.87
2023-04-02T20:51:31.024Z,4.33
2023-04-02T20:53:59.287Z,3.67
2023-04-02T20:56:28.176Z,4.23
2023-04-02T20:58:55.767Z,3.70
2023-04-02T21:01:25.075Z,3.70
2023-04-02T21:03:55.787Z,3.37
2023-04-02T21:06:25.727Z,3.97
2023-04-02T21:08:53.576Z,3.80
2023-04-02T21:11:22.140Z,4.43
2023-04-02T21:13:51.661Z,3.03
2023-04-02T21:16:20.890Z,3.20
2023-04-02T21:18:49.551Z,3.30
2023-04-02T21:21:17.728Z,3.63
2023-04-02T21:23:45.933Z,3.50
2023-04-02T21:26:15.692Z,3.30
2023-04-02T21:28:44.183Z,3.20
2023-04-02T21:31:16.455Z,3.73
2023-04-02T21:33:46.172Z,3.30
2023-04-02T21:36:15.699Z,3.77
2023-04-02T21:38:43.432Z,3.83
2023-04-02T21:41:12.932Z,4.23
2023-04-02T21:43:40.499Z,3.40
2023-04-02T21:46:08.106Z,3.10
2023-04-02T21:48:37.221Z,3.20
2023-04-02T21:51:09.728Z,3.63
2023-04-02T21:53:37.600Z,3.77
2023-04-02T21:56:06.785Z,3.80
2023-04-02T21:58:34.634Z,3.33
2023-04-02T22:01:02.772Z,3.20
2023-04-02T22:03:32.060Z,3.50
2023-04-02T22:06:06.526Z,3.73
2023-04-02T22:08:34.664Z,3.10
2023-04-02T22:11:06.877Z,3.70
2023-04-02T22:13:34.636Z,3.40
2023-04-02T22:16:05.699Z,3.47
2023-04-02T22:18:35.013Z,3.27
2023-04-02T22:21:04.023Z,3.17
2023-04-02T22:23:31.797Z,3.57
2023-04-02T22:26:00.835Z,3.73
2023-04-02T22:28:29.630Z,3.13
2023-04-02T22:31:05.018Z,3.30
2023-04-02T22:33:33.328Z,3.30
2023-04-02T22:36:01.146Z,3.27
2023-04-02T22:38:30.224Z,3.17
2023-04-02T22:41:05.631Z,3.10
2023-04-02T22:43:33.257Z,3.27
2023-04-02T22:46:00.934Z,2.97
2023-04-02T22:48:28.541Z,3.10
2023-04-02T22:50:56.066Z,3.47
2023-04-02T22:53:23.960Z,3.10
2023-04-02T22:55:53.072Z,3.47
2023-04-02T22:58:21.137Z,3.33
2023-04-02T23:00:49.328Z,3.27
2023-04-02T23:03:16.857Z,3.13
2023-04-02T23:05:47.034Z,3.10
2023-04-02T23:08:14.605Z,3.67
2023-04-02T23:10:42.131Z,3.30
2023-04-02T23:13:11.014Z,3.63
2023-04-02T23:15:38.596Z,3.83
2023-04-02T23:18:06.440Z,4.37
2023-04-02T23:20:34.408Z,5.07
2023-04-02T23:23:02.112Z,4.50
2023-04-02T23:25:29.704Z,3.90
2023-04-02T23:27:57.257Z,3.30
2023-04-02T23:30:26.420Z,3.83
2023-04-02T23:32:53.962Z,3.93
2023-04-02T23:35:22.498Z,3.67
2023-04-02T23:37:50.097Z,3.70
2023-04-02T23:40:18.129Z,3.20
2023-04-02T23:42:45.684Z,3.93
2023-04-02T23:45:13.300Z,3.50
2023-04-02T23:47:42.276Z,3.50
2023-04-02T23:50:10.896Z,3.33
2023-04-02T23:52:38.445Z,3.50
2023-04-02T23:55:06.809Z,3.37
2023-04-02T23:57:34.467Z,3.20
